• Join FlightAware (Why Join?)
  • Login
  • US Flag 
12:16PM EDT


 

Airport Tracker/Info


-or-


 

Live Flight TrackerFlight Track Log ✈ N3746H ✈ 19-Apr-2013 ✈ KATL - KDEN

Flight Track Log - Related Links

Times and Time Zones

All times are in EDT time to prevent confusion due to time zone crossing. See the N3746H flight status page for this flight to view local times or setup timezone preferences in your user account.

Time Position Orientation Groundspeed Altitude Reporting Facility
EDT Latitude Longitude Course Direction KTS MPH feet Rate Location/Type
03:31PM 33.6500 -84.4833 270° West 182 209 3,300  Level Atlanta TRACON
03:32PM 33.6667 -84.5500 287° West 240 276 6,300 2,220 Climbing Atlanta TRACON
03:33PM 33.8001 -84.3510 270° West  Level FlightAware Approximate
03:34PM 33.8001 -84.4844 270° West  Level FlightAware Approximate
03:34PM 33.7003 -84.7703 280° West 279 321 11,100  Level Atlanta Center
03:35PM 33.8000 -84.6178 270° West  Level FlightAware Approximate
03:35PM 33.7183 -84.8856 281° West 338 389 13,600  Level Atlanta Center
03:36PM 33.8001 -84.7512 270° West  Level FlightAware Approximate
03:36PM 33.7342 -84.9956 280° West 363 418 15,700  Level Atlanta Center
03:37PM 33.7500 -85.1106 279° West 368 423 19,600 3,060 Climbing Atlanta Center
03:38PM 33.7656 -85.2183 280° West 345 397 21,900 2,100 Climbing Atlanta Center
03:39PM 33.7856 -85.3286 282° West 340 391 23,800 1,320 Climbing Atlanta Center
03:40PM 33.8050 -85.4439 282° West 340 391 24,600 660 Climbing Atlanta Center
03:41PM 33.8286 -85.5767 282° West 381 438 25,200 840 Climbing Atlanta Center
03:42PM 33.8600 -85.7175 285° West 401 461 26,300 960 Climbing Atlanta Center
03:43PM 33.9000 -85.8358 292° West 417 480 27,200 1,140 Climbing Atlanta Center
03:44PM 33.9439 -85.9719 291° West 430 495 28,600 1,380 Climbing Atlanta Center
03:45PM 33.9856 -86.1106 290° West 435 501 30,000 1,620 Climbing Atlanta Center
03:46PM 34.0228 -86.2444 289° West 430 495 31,900 1,560 Climbing Atlanta Center
03:47PM 34.0603 -86.3733 289° West 425 489 33,200 660 Climbing Atlanta Center
03:49PM 34.1314 -86.6358 288° West 419 482 34,000 240 Climbing Memphis Center
03:50PM 34.1686 -86.7672 289° West 419 482 34,000  Level Memphis Center
03:51PM 34.2083 -86.9139 288° West 425 489 34,000  Level Memphis Center
03:52PM 34.2428 -87.0331 289° West 412 474 34,000  Level Memphis Center
03:53PM 34.2756 -87.1600 287° West 397 457 34,000  Level Memphis Center
03:54PM 34.3072 -87.2644 290° West 385 443 34,000  Level Memphis Center
03:55PM 34.3394 -87.3864 288° West 379 436 34,000  Level Memphis Center
03:56PM 34.3736 -87.5111 288° West 379 436 34,000  Level Memphis Center
03:57PM 34.4081 -87.6433 288° West 384 442 34,000  Level Memphis Center
03:58PM 34.4439 -87.7656 290° West 379 436 34,000  Level Memphis Center
03:59PM 34.4758 -87.8906 287° West 379 436 34,000  Level Memphis Center
04:00PM 34.5072 -88.0133 287° West 379 436 34,000  Level Memphis Center
04:01PM 34.5408 -88.1333 289° West 374 430 34,000  Level Memphis Center
04:02PM 34.5744 -88.2586 288° West 388 447 34,000  Level Memphis Center
04:03PM 34.6056 -88.3789 287° West 388 447 34,000  Level Memphis Center
04:04PM 34.6300 -88.4742 287° West 382 440 34,000  Level Memphis Center
04:05PM 34.6675 -88.6122 288° West 366 421 34,000  Level Memphis Center
04:06PM 34.6983 -88.7328 287° West 366 421 34,000  Level Memphis Center
04:07PM 34.7247 -88.8411 287° West 366 421 34,000  Level Memphis Center
04:08PM 34.7575 -88.9669 288° West 382 440 34,000  Level Memphis Center
04:09PM 34.7900 -89.0903 288° West 382 440 34,000  Level Memphis Center
04:10PM 34.8225 -89.2161 287° West 382 440 34,000  Level Memphis Center
04:11PM 34.8550 -89.3422 287° West 382 440 34,000  Level Memphis Center
04:12PM 34.8872 -89.4661 288° West 388 447 34,000  Level Memphis Center
04:13PM 34.9214 -89.5922 288° West 388 447 34,000 60 Level Memphis Center
04:14PM 34.9492 -89.7086 286° West 388 447 34,200 480 Climbing Memphis Center
04:15PM 34.9875 -89.8528 288° West 405 466 35,000 360 Climbing Memphis Center
04:16PM 35.0172 -89.9767 286° West 398 458 35,000  Level Memphis Center
04:17PM 35.0633 -90.0958 295° West 392 451 35,000  Level Memphis Center
04:18PM 35.1117 -90.2200 295° West 398 458 35,000 60 Level Memphis Center
04:19PM 35.1617 -90.3419 297° West 403 464 35,200 480 Climbing Memphis Center
04:20PM 35.2097 -90.4664 295° West 403 464 36,000 240 Climbing Memphis Center
04:22PM 35.3094 -90.7183 296° West 397 457 36,000  Level Memphis Center
04:23PM 35.3569 -90.8383 296° West 402 463 36,000  Level Memphis Center
04:24PM 35.4044 -90.9608 295° West 402 463 36,000  Level Memphis Center
04:25PM 35.4517 -91.0833 295° West 402 463 36,000  Level Memphis Center
04:26PM 35.5031 -91.2089 297° West 402 463 36,000  Level Memphis Center
04:27PM 35.5481 -91.3344 294° West 402 463 36,000  Level Memphis Center
04:28PM 35.5950 -91.4422 298° West 402 463 36,000  Level Memphis Center
04:29PM 35.6419 -91.5706 294° West 402 463 36,000  Level Memphis Center
04:30PM 35.6886 -91.6964 295° West 407 468 36,000  Level Memphis Center
04:31PM 35.7372 -91.8225 295° West 407 468 36,000  Level Memphis Center
04:32PM 35.7858 -91.9461 296° West 402 463 36,000  Level Memphis Center
04:33PM 35.8319 -92.0700 295° West 402 463 36,000  Level Memphis Center
04:34PM 35.8761 -92.1939 294° West 402 463 36,000  Level Memphis Center
04:35PM 35.9264 -92.3206 296° West 402 463 36,000  Level Memphis Center
04:36PM 35.9722 -92.4472 294° West 402 463 36,000  Level Memphis Center
04:37PM 36.0203 -92.5692 296° West 402 463 36,000  Level Memphis Center
04:38PM 36.0639 -92.6883 294° West 402 463 36,000  Level Memphis Center
04:39PM 36.1094 -92.8131 294° West 402 463 36,000  Level Memphis Center
04:40PM 36.1528 -92.9353 294° West 402 463 36,000  Level Memphis Center
04:41PM 36.1983 -93.0525 296° West 397 457 36,000  Level Memphis Center
04:42PM 36.2417 -93.1747 294° West 391 450 36,000  Level Memphis Center
04:43PM 36.2847 -93.2919 295° West 384 442 36,000  Level Memphis Center
04:44PM 36.3278 -93.4119 294° West 384 442 36,000  Level Memphis Center
04:47PM 36.4192 -93.6625 294° West 378 435 36,000  Level Kansas City Center
04:48PM 36.4725 -93.8019 295° West 375 432 36,000  Level Kansas City Center
04:49PM 36.5144 -93.9189 294° West 373 429 36,000  Level Kansas City Center
04:50PM 36.5556 -94.0361 294° West 371 427 36,000  Level Kansas City Center
04:51PM 36.5967 -94.1536 294° West 371 427 36,000  Level Kansas City Center
04:52PM 36.6383 -94.2697 294° West 369 425 36,000  Level Kansas City Center
04:53PM 36.6794 -94.3886 293° West 371 427 36,000  Level Kansas City Center
04:54PM 36.7314 -94.5322 294° West 376 433 36,000  Level Kansas City Center
04:55PM 36.7719 -94.6539 293° West 380 437 36,000  Level Kansas City Center
04:56PM 36.8144 -94.7747 294° West 380 437 36,000  Level Kansas City Center
04:57PM 36.8564 -94.8956 293° West 381 438 36,000  Level Kansas City Center
04:58PM 36.8986 -95.0181 293° West 384 442 36,000  Level Kansas City Center
04:59PM 36.9503 -95.1661 294° West 388 447 36,000  Level Kansas City Center
05:00PM 36.9914 -95.2900 293° West 388 447 36,000  Level Kansas City Center
05:01PM 37.0347 -95.4153 293° West 391 450 36,000  Level Kansas City Center
05:02PM 37.0775 -95.5450 292° West 400 460 36,000  Level Kansas City Center
05:03PM 37.1197 -95.6714 293° West 396 456 36,000  Level Kansas City Center
05:04PM 37.1625 -95.7989 293° West 396 456 36,000 300 Level Kansas City Center
05:05PM 37.2017 -95.9567 287° West 394 453 36,700 720 Climbing Kansas City Center
05:06PM 37.2250 -96.0917 282° West 395 455 37,600 600 Climbing Kansas City Center
05:07PM 37.2475 -96.2258 282° West 394 453 38,000 180 Climbing Kansas City Center
05:08PM 37.2706 -96.3600 282° West 394 453 38,000  Level Kansas City Center
05:09PM 37.2944 -96.5086 281° West 392 451 38,000  Level Kansas City Center
05:10PM 37.3178 -96.6422 282° West 391 450 38,000  Level Kansas City Center
05:11PM 37.3408 -96.7764 282° West 393 452 38,000  Level Kansas City Center
05:12PM 37.3622 -96.9114 281° West 394 453 38,000  Level Kansas City Center
05:14PM 37.3861 -97.0464 283° West 396 456 38,000  Level Kansas City Center
05:15PM 37.4072 -97.1836 281° West 399 459 38,000  Level Kansas City Center
05:16PM 37.4300 -97.3200 282° West 398 458 38,000  Level Kansas City Center
05:17PM 37.4567 -97.4869 281° West 396 456 38,000  Level Kansas City Center
05:18PM 37.4772 -97.6197 281° West 394 453 38,000  Level Kansas City Center
05:19PM 37.4986 -97.7564 281° West 395 455 38,000  Level Kansas City Center
05:20PM 37.5192 -97.8939 281° West 396 456 38,000  Level Kansas City Center
05:21PM 37.5400 -98.0292 281° West 393 452 38,000  Level Kansas City Center
05:22PM 37.5597 -98.1631 281° West 388 447 38,000  Level Kansas City Center
05:23PM 37.5800 -98.2939 281° West 382 440 38,000  Level Kansas City Center
05:24PM 37.5994 -98.4258 281° West 381 438 38,000  Level Kansas City Center
05:25PM 37.6219 -98.5836 280° West 380 437 38,000  Level Kansas City Center
05:26PM 37.6417 -98.7194 280° West 387 445 38,000  Level Kansas City Center
05:27PM 37.6633 -98.8575 281° West 397 457 38,000  Level Kansas City Center
05:28PM 37.6825 -98.9967 280° West 401 461 38,000  Level Kansas City Center
05:29PM 37.7031 -99.1339 281° West 399 459 38,000  Level Kansas City Center
05:30PM 37.7222 -99.2736 280° West 401 461 38,000  Level Kansas City Center
05:31PM 37.7458 -99.4392 280° West 400 460 38,000  Level Kansas City Center
05:32PM 37.7639 -99.5714 280° West 401 461 38,000  Level Kansas City Center
05:33PM 37.7853 -99.7267 280° West 402 463 38,000  Level Kansas City Center
05:34PM 37.8044 -99.8586 280° West 401 461 38,000  Level Kansas City Center
05:35PM 37.8253 -100.0139 280° West 402 463 38,000  Level Kansas City Center
05:36PM 37.8431 -100.1492 279° West 406 467 38,000  Level Kansas City Center
05:37PM 37.8644 -100.3050 280° West 405 466 38,000  Level Kansas City Center
05:38PM 37.8817 -100.4394 279° West 405 466 38,000  Level Kansas City Center
05:39PM 37.9025 -100.5969 280° West 408 470 38,000  Level Kansas City Center
05:40PM 37.9214 -100.7303 280° West 407 468 38,000  Level Kansas City Center
05:41PM 37.9744 -100.8692 296° West 396 456 38,000  Level Kansas City Center
05:42PM 37.9903 -100.9092 297° West 398 458 38,000  Level Denver Center
05:43PM 38.0364 -101.0286 296° West 398 458 38,000  Level Denver Center
05:44PM 38.1017 -101.1603 302° West 396 456 38,000  Level Denver Center
05:45PM 38.1567 -101.2731 302° West 394 453 38,000  Level Denver Center
05:46PM 38.2200 -101.4050 301° West 393 452 38,000 -300 Level Denver Center
05:47PM 38.2758 -101.5178 302° West 394 453 37,400 -840 Descending Denver Center
05:48PM 38.3386 -101.6506 301° West 393 452 36,300 -720 Descending Denver Center
05:49PM 38.3922 -101.7619 302° West 387 445 36,000 -180 Descending Denver Center
05:50PM 38.4553 -101.8942 301° West 390 449 36,000  Level Denver Center
05:51PM 38.5092 -102.0075 301° West 392 451 36,000  Level Denver Center
05:52PM 38.5722 -102.1411 301° West 392 451 36,000  Level Denver Center
05:53PM 38.6264 -102.2547 301° West 392 451 36,000  Level Denver Center
05:54PM 38.6883 -102.3889 301° West 392 451 36,000 -300 Level Denver Center
05:55PM 38.7419 -102.5025 301° West 391 450 35,400 -780 Descending Denver Center
05:56PM 38.8050 -102.6386 301° West 396 456 34,400 -1,020 Descending Denver Center
05:57PM 38.8628 -102.7644 301° West 392 451 33,400 -1,020 Descending Denver Center
05:58PM 38.9197 -102.8853 301° West 391 450 32,400 -960 Descending Denver Center
05:59PM 38.9747 -103.0081 300° West 393 452 31,500 -960 Descending Denver Center
06:00PM 39.0331 -103.1319 301° West 399 459 30,500 -840 Descending Denver Center
06:01PM 39.0892 -103.2583 300° West 402 463 29,800 -1,680 Descending Denver Center
06:02PM 39.1464 -103.3831 301° West 402 463 27,100 -2,760 Descending Denver Center
06:03PM 39.2033 -103.5067 301° West 399 459 24,100 -2,760 Descending Denver Center
06:04PM 39.2564 -103.6272 300° West 385 443 21,400 -2,700 Descending Denver Center
06:06PM 39.3194 -103.7642 301° West 378 435 18,600 -1,800 Descending Denver Center
06:07PM 39.3692 -103.8764 300° West 363 418 17,800 -960 Descending Denver Center
06:08PM 39.3986 -103.9847 289° West 322 371 16,700 -1,260 Descending Denver Center
06:09PM 39.4042 -104.0964 274° West 312 359 15,200 -1,560 Descending Denver Center
06:10PM 39.4083 -104.2192 273° West 317 365 13,500 -1,500 Descending Denver Center
06:11PM 39.4133 -104.3283 273° West 308 354 12,200 -1,320 Descending Denver Center
06:12PM 39.4481 -104.4242 295° West 320 368 10,800 -1,080 Descending Denver Center
06:13PM 39.5064 -104.5067 313° West 290 334 10,000 -720 Descending Denver Center
06:14PM 39.5719 -104.5469 335° Northwest 254 292 9,400 -600 Descending Denver Center